sensor_id;sensor_type;location;lat;lon;timestamp;temperature;humidity
4725;DHT22;2376;53.544;10.226;2023-05-16T00:01:49;11.40;99.90
4725;DHT22;2376;53.544;10.226;2023-05-16T00:04:16;11.50;99.90
4725;DHT22;2376;53.544;10.226;2023-05-16T00:06:43;11.50;99.90
4725;DHT22;2376;53.544;10.226;2023-05-16T00:09:09;11.30;99.90
4725;DHT22;2376;53.544;10.226;2023-05-16T00:11:37;11.20;99.90
4725;DHT22;2376;53.544;10.226;2023-05-16T00:14:04;11.30;99.90
4725;DHT22;2376;53.544;10.226;2023-05-16T00:16:32;11.20;99.90
4725;DHT22;2376;53.544;10.226;2023-05-16T00:19:01;11.30;99.90
4725;DHT22;2376;53.544;10.226;2023-05-16T00:21:28;11.30;99.90
4725;DHT22;2376;53.544;10.226;2023-05-16T00:23:55;11.40;99.90
4725;DHT22;2376;53.544;10.226;2023-05-16T00:26:22;11.20;99.90
4725;DHT22;2376;53.544;10.226;2023-05-16T00:28:50;11.30;99.90
4725;DHT22;2376;53.544;10.226;2023-05-16T00:31:17;11.40;99.90
4725;DHT22;2376;53.544;10.226;2023-05-16T00:33:44;11.40;99.90
4725;DHT22;2376;53.544;10.226;2023-05-16T00:36:10;11.50;99.90
4725;DHT22;2376;53.544;10.226;2023-05-16T00:38:37;11.40;99.90
4725;DHT22;2376;53.544;10.226;2023-05-16T00:41:04;11.60;99.90
4725;DHT22;2376;53.544;10.226;2023-05-16T00:43:31;11.70;99.90
4725;DHT22;2376;53.544;10.226;2023-05-16T00:45:59;11.80;99.90
4725;DHT22;2376;53.544;10.226;2023-05-16T00:48:26;11.60;99.90
4725;DHT22;2376;53.544;10.226;2023-05-16T00:50:53;11.60;99.90
4725;DHT22;2376;53.544;10.226;2023-05-16T00:53:20;11.50;99.90
4725;DHT22;2376;53.544;10.226;2023-05-16T00:55:47;11.40;99.90
4725;DHT22;2376;53.544;10.226;2023-05-16T00:58:14;11.40;99.90
4725;DHT22;2376;53.544;10.226;2023-05-16T01:00:41;11.40;99.90
4725;DHT22;2376;53.544;10.226;2023-05-16T01:03:10;11.40;99.90
4725;DHT22;2376;53.544;10.226;2023-05-16T01:05:37;11.30;99.90
4725;DHT22;2376;53.544;10.226;2023-05-16T01:08:04;11.40;99.90
4725;DHT22;2376;53.544;10.226;2023-05-16T01:10:35;11.50;99.90
4725;DHT22;2376;53.544;10.226;2023-05-16T01:13:10;11.60;99.90
4725;DHT22;2376;53.544;10.226;2023-05-16T01:15:42;11.70;99.90
4725;DHT22;2376;53.544;10.226;2023-05-16T01:18:18;11.80;99.90
4725;DHT22;2376;53.544;10.226;2023-05-16T01:20:52;11.80;99.90
4725;DHT22;2376;53.544;10.226;2023-05-16T01:23:33;11.70;99.90
4725;DHT22;2376;53.544;10.226;2023-05-16T01:26:13;11.70;99.90
4725;DHT22;2376;53.544;10.226;2023-05-16T01:28:41;11.70;99.90
4725;DHT22;2376;53.544;10.226;2023-05-16T01:31:09;11.60;99.90
4725;DHT22;2376;53.544;10.226;2023-05-16T01:33:36;11.50;99.90
4725;DHT22;2376;53.544;10.226;2023-05-16T01:36:15;11.40;99.90
4725;DHT22;2376;53.544;10.226;2023-05-16T01:38:48;11.60;99.90
4725;DHT22;2376;53.544;10.226;2023-05-16T01:41:21;11.40;99.90
4725;DHT22;2376;53.544;10.226;2023-05-16T01:43:51;11.30;99.90
4725;DHT22;2376;53.544;10.226;2023-05-16T01:46:25;11.40;99.90
4725;DHT22;2376;53.544;10.226;2023-05-16T01:49:00;11.40;99.90
4725;DHT22;2376;53.544;10.226;2023-05-16T01:51:31;11.60;99.90
4725;DHT22;2376;53.544;10.226;2023-05-16T01:54:02;11.60;99.90
4725;DHT22;2376;53.544;10.226;2023-05-16T01:56:32;11.40;99.90
4725;DHT22;2376;53.544;10.226;2023-05-16T01:59:00;11.50;99.90
4725;DHT22;2376;53.544;10.226;2023-05-16T02:01:29;11.50;99.90
4725;DHT22;2376;53.544;10.226;2023-05-16T02:03:56;11.60;99.90
4725;DHT22;2376;53.544;10.226;2023-05-16T02:06:23;11.80;99.90
4725;DHT22;2376;53.544;10.226;2023-05-16T02:08:50;11.80;99.90
4725;DHT22;2376;53.544;10.226;2023-05-16T02:11:17;11.70;99.90
4725;DHT22;2376;53.544;10.226;2023-05-16T02:13:45;11.80;99.90
4725;DHT22;2376;53.544;10.226;2023-05-16T02:16:12;11.90;99.90
4725;DHT22;2376;53.544;10.226;2023-05-16T02:18:39;11.70;99.90
4725;DHT22;2376;53.544;10.226;2023-05-16T02:21:05;11.70;99.90
4725;DHT22;2376;53.544;10.226;2023-05-16T02:23:33;11.60;99.90
4725;DHT22;2376;53.544;10.226;2023-05-16T02:25:59;11.60;99.90
4725;DHT22;2376;53.544;10.226;2023-05-16T02:28:26;11.50;99.90
4725;DHT22;2376;53.544;10.226;2023-05-16T02:30:58;11.40;99.90
4725;DHT22;2376;53.544;10.226;2023-05-16T02:33:25;11.50;99.90
4725;DHT22;2376;53.544;10.226;2023-05-16T02:35:52;11.50;99.90
4725;DHT22;2376;53.544;10.226;2023-05-16T02:38:19;11.40;99.90
4725;DHT22;2376;53.544;10.226;2023-05-16T02:40:46;11.30;99.90
4725;DHT22;2376;53.544;10.226;2023-05-16T02:43:13;11.40;99.90
4725;DHT22;2376;53.544;10.226;2023-05-16T02:45:40;11.40;99.90
4725;DHT22;2376;53.544;10.226;2023-05-16T02:48:08;11.50;99.90
4725;DHT22;2376;53.544;10.226;2023-05-16T02:50:36;11.60;99.90
4725;DHT22;2376;53.544;10.226;2023-05-16T02:53:04;11.60;99.90
4725;DHT22;2376;53.544;10.226;2023-05-16T02:55:31;11.70;99.90
4725;DHT22;2376;53.544;10.226;2023-05-16T02:57:58;11.60;99.90
4725;DHT22;2376;53.544;10.226;2023-05-16T03:00:25;11.40;99.90
4725;DHT22;2376;53.544;10.226;2023-05-16T03:02:52;11.40;99.90
4725;DHT22;2376;53.544;10.226;2023-05-16T03:05:20;11.30;99.90
4725;DHT22;2376;53.544;10.226;2023-05-16T03:07:46;11.30;99.90
4725;DHT22;2376;53.544;10.226;2023-05-16T03:10:13;11.30;99.90
4725;DHT22;2376;53.544;10.226;2023-05-16T03:12:40;11.30;99.90
4725;DHT22;2376;53.544;10.226;2023-05-16T03:15:08;11.30;99.90
4725;DHT22;2376;53.544;10.226;2023-05-16T03:17:35;11.40;99.90
4725;DHT22;2376;53.544;10.226;2023-05-16T03:20:03;11.40;99.90
4725;DHT22;2376;53.544;10.226;2023-05-16T03:22:35;11.30;99.90
4725;DHT22;2376;53.544;10.226;2023-05-16T03:25:02;11.30;99.90
4725;DHT22;2376;53.544;10.226;2023-05-16T03:27:29;11.40;99.90
4725;DHT22;2376;53.544;10.226;2023-05-16T03:29:56;11.40;99.90
4725;DHT22;2376;53.544;10.226;2023-05-16T03:32:22;11.10;99.90
4725;DHT22;2376;53.544;10.226;2023-05-16T03:34:49;11.20;99.90
4725;DHT22;2376;53.544;10.226;2023-05-16T03:37:16;11.20;99.90
4725;DHT22;2376;53.544;10.226;2023-05-16T03:39:44;11.30;99.90
4725;DHT22;2376;53.544;10.226;2023-05-16T03:42:11;11.30;99.90
4725;DHT22;2376;53.544;10.226;2023-05-16T03:44:37;11.30;99.90
4725;DHT22;2376;53.544;10.226;2023-05-16T03:47:04;11.40;99.90
4725;DHT22;2376;53.544;10.226;2023-05-16T03:49:31;11.50;99.90
4725;DHT22;2376;53.544;10.226;2023-05-16T03:51:58;11.50;99.90
4725;DHT22;2376;53.544;10.226;2023-05-16T03:54:24;11.20;99.90
4725;DHT22;2376;53.544;10.226;2023-05-16T03:56:52;11.30;99.90
4725;DHT22;2376;53.544;10.226;2023-05-16T03:59:19;11.10;99.90
4725;DHT22;2376;53.544;10.226;2023-05-16T04:01:46;11.20;99.90
4725;DHT22;2376;53.544;10.226;2023-05-16T04:04:13;11.20;99.90
4725;DHT22;2376;53.544;10.226;2023-05-16T04:06:39;11.30;99.90
4725;DHT22;2376;53.544;10.226;2023-05-16T04:09:06;11.20;99.90
4725;DHT22;2376;53.544;10.226;2023-05-16T04:11:34;11.20;99.90
4725;DHT22;2376;53.544;10.226;2023-05-16T04:14:02;11.20;99.90
4725;DHT22;2376;53.544;10.226;2023-05-16T04:16:28;11.20;99.90
4725;DHT22;2376;53.544;10.226;2023-05-16T04:18:55;11.20;99.90
4725;DHT22;2376;53.544;10.226;2023-05-16T04:21:22;11.10;99.90
4725;DHT22;2376;53.544;10.226;2023-05-16T04:23:49;11.30;99.90
4725;DHT22;2376;53.544;10.226;2023-05-16T04:26:15;11.30;99.90
4725;DHT22;2376;53.544;10.226;2023-05-16T04:28:42;11.30;99.90
4725;DHT22;2376;53.544;10.226;2023-05-16T04:31:10;10.90;99.90
4725;DHT22;2376;53.544;10.226;2023-05-16T04:33:38;11.00;99.90
4725;DHT22;2376;53.544;10.226;2023-05-16T04:36:06;11.10;99.90
4725;DHT22;2376;53.544;10.226;2023-05-16T04:38:33;11.00;99.90
4725;DHT22;2376;53.544;10.226;2023-05-16T04:40:59;11.00;99.90
4725;DHT22;2376;53.544;10.226;2023-05-16T04:43:28;11.10;99.90
4725;DHT22;2376;53.544;10.226;2023-05-16T04:48:35;11.20;99.90
4725;DHT22;2376;53.544;10.226;2023-05-16T04:51:02;11.00;99.90
4725;DHT22;2376;53.544;10.226;2023-05-16T04:53:29;11.00;99.90
4725;DHT22;2376;53.544;10.226;2023-05-16T04:55:56;11.00;99.90
4725;DHT22;2376;53.544;10.226;2023-05-16T04:58:22;11.00;99.90
4725;DHT22;2376;53.544;10.226;2023-05-16T05:00:50;11.00;99.90
4725;DHT22;2376;53.544;10.226;2023-05-16T05:03:17;11.10;99.90
4725;DHT22;2376;53.544;10.226;2023-05-16T05:05:45;11.20;99.90
4725;DHT22;2376;53.544;10.226;2023-05-16T05:08:12;11.30;99.90
4725;DHT22;2376;53.544;10.226;2023-05-16T05:10:39;11.30;99.90
4725;DHT22;2376;53.544;10.226;2023-05-16T05:13:06;11.30;99.90
4725;DHT22;2376;53.544;10.226;2023-05-16T05:15:32;11.40;99.90
4725;DHT22;2376;53.544;10.226;2023-05-16T05:17:59;11.30;99.90
4725;DHT22;2376;53.544;10.226;2023-05-16T05:20:26;11.30;99.90
4725;DHT22;2376;53.544;10.226;2023-05-16T05:22:54;11.40;99.90
4725;DHT22;2376;53.544;10.226;2023-05-16T05:25:21;11.40;99.90
4725;DHT22;2376;53.544;10.226;2023-05-16T05:27:47;11.50;99.90
4725;DHT22;2376;53.544;10.226;2023-05-16T05:30:14;11.60;99.90
4725;DHT22;2376;53.544;10.226;2023-05-16T05:35:08;11.60;99.90
4725;DHT22;2376;53.544;10.226;2023-05-16T05:37:35;11.60;99.90
4725;DHT22;2376;53.544;10.226;2023-05-16T05:40:03;11.50;99.90
4725;DHT22;2376;53.544;10.226;2023-05-16T05:42:30;11.30;99.90
4725;DHT22;2376;53.544;10.226;2023-05-16T05:44:57;11.30;99.90
4725;DHT22;2376;53.544;10.226;2023-05-16T05:47:23;11.30;99.90
4725;DHT22;2376;53.544;10.226;2023-05-16T05:49:50;11.40;99.90
4725;DHT22;2376;53.544;10.226;2023-05-16T05:52:17;11.50;99.90
4725;DHT22;2376;53.544;10.226;2023-05-16T05:54:44;11.40;99.90
4725;DHT22;2376;53.544;10.226;2023-05-16T05:57:12;11.50;99.90
4725;DHT22;2376;53.544;10.226;2023-05-16T05:59:38;11.30;99.90
4725;DHT22;2376;53.544;10.226;2023-05-16T06:02:05;11.50;99.90
4725;DHT22;2376;53.544;10.226;2023-05-16T06:04:33;11.60;99.90
4725;DHT22;2376;53.544;10.226;2023-05-16T06:06:59;11.70;99.90
4725;DHT22;2376;53.544;10.226;2023-05-16T06:09:26;11.70;99.90
4725;DHT22;2376;53.544;10.226;2023-05-16T06:11:53;11.80;99.90
4725;DHT22;2376;53.544;10.226;2023-05-16T06:14:21;11.90;99.90
4725;DHT22;2376;53.544;10.226;2023-05-16T06:16:48;11.70;99.90
4725;DHT22;2376;53.544;10.226;2023-05-16T06:19:14;11.60;99.90
4725;DHT22;2376;53.544;10.226;2023-05-16T06:21:41;11.60;99.90
4725;DHT22;2376;53.544;10.226;2023-05-16T06:24:09;11.60;99.90
4725;DHT22;2376;53.544;10.226;2023-05-16T06:26:36;11.70;99.90
4725;DHT22;2376;53.544;10.226;2023-05-16T06:29:03;11.70;99.90
4725;DHT22;2376;53.544;10.226;2023-05-16T06:31:32;11.50;99.90
4725;DHT22;2376;53.544;10.226;2023-05-16T06:33:58;11.40;99.90
4725;DHT22;2376;53.544;10.226;2023-05-16T06:36:25;11.40;99.90
4725;DHT22;2376;53.544;10.226;2023-05-16T06:38:52;11.50;99.90
4725;DHT22;2376;53.544;10.226;2023-05-16T06:41:18;11.60;99.90
4725;DHT22;2376;53.544;10.226;2023-05-16T06:43:45;11.60;99.90
4725;DHT22;2376;53.544;10.226;2023-05-16T06:46:12;11.50;99.90
4725;DHT22;2376;53.544;10.226;2023-05-16T06:48:40;11.50;99.90
4725;DHT22;2376;53.544;10.226;2023-05-16T06:51:07;11.40;99.90
4725;DHT22;2376;53.544;10.226;2023-05-16T06:53:34;11.50;99.90
4725;DHT22;2376;53.544;10.226;2023-05-16T06:56:01;11.70;99.90
4725;DHT22;2376;53.544;10.226;2023-05-16T06:58:27;11.70;99.90
4725;DHT22;2376;53.544;10.226;2023-05-16T07:00:54;11.70;99.90
4725;DHT22;2376;53.544;10.226;2023-05-16T07:03:21;11.80;99.90
4725;DHT22;2376;53.544;10.226;2023-05-16T07:05:49;12.00;99.90
4725;DHT22;2376;53.544;10.226;2023-05-16T07:08:17;12.20;99.90
4725;DHT22;2376;53.544;10.226;2023-05-16T07:10:43;12.20;99.90
4725;DHT22;2376;53.544;10.226;2023-05-16T07:13:11;12.20;99.90
4725;DHT22;2376;53.544;10.226;2023-05-16T07:15:37;12.20;99.90
4725;DHT22;2376;53.544;10.226;2023-05-16T07:18:04;12.30;99.90
4725;DHT22;2376;53.544;10.226;2023-05-16T07:20:30;12.30;99.90
4725;DHT22;2376;53.544;10.226;2023-05-16T07:22:58;12.30;99.90
4725;DHT22;2376;53.544;10.226;2023-05-16T07:25:25;12.40;99.90
4725;DHT22;2376;53.544;10.226;2023-05-16T07:27:52;12.20;99.90
4725;DHT22;2376;53.544;10.226;2023-05-16T07:30:19;12.10;99.90
4725;DHT22;2376;53.544;10.226;2023-05-16T07:32:46;12.30;99.90
4725;DHT22;2376;53.544;10.226;2023-05-16T07:35:12;12.40;99.90
4725;DHT22;2376;53.544;10.226;2023-05-16T07:37:39;12.40;99.90
4725;DHT22;2376;53.544;10.226;2023-05-16T07:40:09;12.40;99.90
4725;DHT22;2376;53.544;10.226;2023-05-16T07:42:35;12.40;99.90
4725;DHT22;2376;53.544;10.226;2023-05-16T07:45:03;12.50;99.90
4725;DHT22;2376;53.544;10.226;2023-05-16T07:47:31;12.60;99.90
4725;DHT22;2376;53.544;10.226;2023-05-16T07:49:58;12.80;99.90
4725;DHT22;2376;53.544;10.226;2023-05-16T07:52:24;12.90;99.90
4725;DHT22;2376;53.544;10.226;2023-05-16T07:54:52;13.00;99.90
4725;DHT22;2376;53.544;10.226;2023-05-16T07:57:20;12.90;99.90
4725;DHT22;2376;53.544;10.226;2023-05-16T07:59:46;12.90;99.70
4725;DHT22;2376;53.544;10.226;2023-05-16T08:02:13;13.10;97.00
4725;DHT22;2376;53.544;10.226;2023-05-16T08:04:40;13.30;95.80
4725;DHT22;2376;53.544;10.226;2023-05-16T08:07:08;13.40;86.30
4725;DHT22;2376;53.544;10.226;2023-05-16T08:09:35;13.40;81.60
4725;DHT22;2376;53.544;10.226;2023-05-16T08:12:02;13.50;81.10
4725;DHT22;2376;53.544;10.226;2023-05-16T08:14:30;13.40;81.10
4725;DHT22;2376;53.544;10.226;2023-05-16T08:16:57;13.50;85.20
4725;DHT22;2376;53.544;10.226;2023-05-16T08:19:24;13.80;85.00
4725;DHT22;2376;53.544;10.226;2023-05-16T08:21:51;13.90;77.40
4725;DHT22;2376;53.544;10.226;2023-05-16T08:24:18;13.90;73.60
4725;DHT22;2376;53.544;10.226;2023-05-16T08:26:44;13.80;71.00
4725;DHT22;2376;53.544;10.226;2023-05-16T08:29:11;13.90;69.20
4725;DHT22;2376;53.544;10.226;2023-05-16T08:31:39;13.70;66.40
4725;DHT22;2376;53.544;10.226;2023-05-16T08:34:06;13.90;66.20
4725;DHT22;2376;53.544;10.226;2023-05-16T08:36:33;14.00;67.40
4725;DHT22;2376;53.544;10.226;2023-05-16T08:39:00;14.10;66.50
4725;DHT22;2376;53.544;10.226;2023-05-16T08:41:28;14.10;69.10
4725;DHT22;2376;53.544;10.226;2023-05-16T08:43:55;14.30;70.00
4725;DHT22;2376;53.544;10.226;2023-05-16T08:46:22;14.40;69.00
4725;DHT22;2376;53.544;10.226;2023-05-16T08:48:52;14.50;69.80
4725;DHT22;2376;53.544;10.226;2023-05-16T08:51:19;14.60;69.60
4725;DHT22;2376;53.544;10.226;2023-05-16T08:53:51;14.60;71.20
4725;DHT22;2376;53.544;10.226;2023-05-16T08:56:18;14.70;72.30
4725;DHT22;2376;53.544;10.226;2023-05-16T08:58:46;14.60;69.90
4725;DHT22;2376;53.544;10.226;2023-05-16T09:01:14;14.60;66.90
4725;DHT22;2376;53.544;10.226;2023-05-16T09:03:42;14.50;66.40
4725;DHT22;2376;53.544;10.226;2023-05-16T09:06:10;14.60;67.70
4725;DHT22;2376;53.544;10.226;2023-05-16T09:08:37;14.60;69.20
4725;DHT22;2376;53.544;10.226;2023-05-16T09:11:04;14.60;69.90
4725;DHT22;2376;53.544;10.226;2023-05-16T09:13:30;14.60;68.20
4725;DHT22;2376;53.544;10.226;2023-05-16T09:16:11;14.60;63.00
4725;DHT22;2376;53.544;10.226;2023-05-16T09:18:38;14.60;58.10
4725;DHT22;2376;53.544;10.226;2023-05-16T09:21:05;14.60;57.40
4725;DHT22;2376;53.544;10.226;2023-05-16T09:23:34;14.60;56.80
4725;DHT22;2376;53.544;10.226;2023-05-16T09:26:01;14.70;57.80
4725;DHT22;2376;53.544;10.226;2023-05-16T09:28:29;14.90;58.20
4725;DHT22;2376;53.544;10.226;2023-05-16T09:30:55;15.10;58.80
4725;DHT22;2376;53.544;10.226;2023-05-16T09:33:25;15.10;58.10
4725;DHT22;2376;53.544;10.226;2023-05-16T09:35:56;15.20;57.00
4725;DHT22;2376;53.544;10.226;2023-05-16T09:38:24;15.30;57.90
4725;DHT22;2376;53.544;10.226;2023-05-16T09:40:53;15.40;59.10
4725;DHT22;2376;53.544;10.226;2023-05-16T09:43:23;15.20;59.60
4725;DHT22;2376;53.544;10.226;2023-05-16T09:45:51;15.20;60.60
4725;DHT22;2376;53.544;10.226;2023-05-16T09:48:20;15.20;61.70
4725;DHT22;2376;53.544;10.226;2023-05-16T09:50:50;15.10;59.90
4725;DHT22;2376;53.544;10.226;2023-05-16T09:53:24;15.00;60.60
4725;DHT22;2376;53.544;10.226;2023-05-16T09:56:00;15.10;59.40
4725;DHT22;2376;53.544;10.226;2023-05-16T09:58:28;15.10;61.50
4725;DHT22;2376;53.544;10.226;2023-05-16T10:00:56;15.20;62.60
4725;DHT22;2376;53.544;10.226;2023-05-16T10:03:23;15.50;57.70
4725;DHT22;2376;53.544;10.226;2023-05-16T10:05:51;15.60;56.20
4725;DHT22;2376;53.544;10.226;2023-05-16T10:08:19;15.70;54.90
4725;DHT22;2376;53.544;10.226;2023-05-16T10:10:49;15.70;54.60
4725;DHT22;2376;53.544;10.226;2023-05-16T10:13:18;15.60;53.90
4725;DHT22;2376;53.544;10.226;2023-05-16T10:15:46;15.70;54.50
4725;DHT22;2376;53.544;10.226;2023-05-16T10:18:13;15.70;54.30
4725;DHT22;2376;53.544;10.226;2023-05-16T10:20:44;15.80;54.60
4725;DHT22;2376;53.544;10.226;2023-05-16T10:23:16;15.80;52.10
4725;DHT22;2376;53.544;10.226;2023-05-16T10:25:44;15.80;51.70
4725;DHT22;2376;53.544;10.226;2023-05-16T10:28:12;15.70;52.60
4725;DHT22;2376;53.544;10.226;2023-05-16T10:30:42;15.60;53.00
4725;DHT22;2376;53.544;10.226;2023-05-16T10:33:10;15.70;54.50
4725;DHT22;2376;53.544;10.226;2023-05-16T10:35:38;15.60;55.90
4725;DHT22;2376;53.544;10.226;2023-05-16T10:38:05;15.70;55.30
4725;DHT22;2376;53.544;10.226;2023-05-16T10:40:34;15.50;54.60
4725;DHT22;2376;53.544;10.226;2023-05-16T10:43:02;15.50;55.60
4725;DHT22;2376;53.544;10.226;2023-05-16T10:45:29;15.50;55.20
4725;DHT22;2376;53.544;10.226;2023-05-16T10:47:59;15.40;53.40
4725;DHT22;2376;53.544;10.226;2023-05-16T10:50:32;15.40;55.40
4725;DHT22;2376;53.544;10.226;2023-05-16T10:53:17;15.40;57.20
4725;DHT22;2376;53.544;10.226;2023-05-16T10:55:48;15.70;58.40
4725;DHT22;2376;53.544;10.226;2023-05-16T10:58:23;15.70;58.40
4725;DHT22;2376;53.544;10.226;2023-05-16T11:01:15;15.70;59.60
4725;DHT22;2376;53.544;10.226;2023-05-16T11:04:05;15.80;59.10
4725;DHT22;2376;53.544;10.226;2023-05-16T11:06:33;15.90;58.80
4725;DHT22;2376;53.544;10.226;2023-05-16T11:09:04;15.90;55.50
4725;DHT22;2376;53.544;10.226;2023-05-16T11:11:38;15.70;52.90
4725;DHT22;2376;53.544;10.226;2023-05-16T11:14:06;15.70;53.80
4725;DHT22;2376;53.544;10.226;2023-05-16T11:16:33;15.70;55.00
4725;DHT22;2376;53.544;10.226;2023-05-16T11:19:05;15.80;56.00
4725;DHT22;2376;53.544;10.226;2023-05-16T11:22:03;15.70;53.50
4725;DHT22;2376;53.544;10.226;2023-05-16T11:24:30;15.90;53.00
4725;DHT22;2376;53.544;10.226;2023-05-16T11:26:58;15.90;53.00
4725;DHT22;2376;53.544;10.226;2023-05-16T11:29:26;15.70;55.10
4725;DHT22;2376;53.544;10.226;2023-05-16T11:31:53;15.80;56.30
4725;DHT22;2376;53.544;10.226;2023-05-16T11:34:21;15.80;56.80
4725;DHT22;2376;53.544;10.226;2023-05-16T11:36:48;15.90;54.60
4725;DHT22;2376;53.544;10.226;2023-05-16T11:39:15;16.00;54.00
4725;DHT22;2376;53.544;10.226;2023-05-16T11:41:43;16.10;53.30
4725;DHT22;2376;53.544;10.226;2023-05-16T11:44:10;16.10;51.60
4725;DHT22;2376;53.544;10.226;2023-05-16T11:46:38;16.20;51.10
4725;DHT22;2376;53.544;10.226;2023-05-16T11:49:06;16.10;50.90
4725;DHT22;2376;53.544;10.226;2023-05-16T11:51:36;15.70;50.40
4725;DHT22;2376;53.544;10.226;2023-05-16T11:54:03;15.40;51.20
4725;DHT22;2376;53.544;10.226;2023-05-16T11:56:30;15.50;51.30
4725;DHT22;2376;53.544;10.226;2023-05-16T11:58:58;15.80;51.10
4725;DHT22;2376;53.544;10.226;2023-05-16T12:01:30;16.00;50.90
4725;DHT22;2376;53.544;10.226;2023-05-16T12:03:57;16.00;51.60
4725;DHT22;2376;53.544;10.226;2023-05-16T12:06:24;16.00;52.60
4725;DHT22;2376;53.544;10.226;2023-05-16T12:08:52;16.00;49.80
4725;DHT22;2376;53.544;10.226;2023-05-16T12:11:20;16.00;49.20
4725;DHT22;2376;53.544;10.226;2023-05-16T12:13:48;16.20;50.80
4725;DHT22;2376;53.544;10.226;2023-05-16T12:16:15;16.20;51.80
4725;DHT22;2376;53.544;10.226;2023-05-16T12:18:42;16.40;52.10
4725;DHT22;2376;53.544;10.226;2023-05-16T12:21:09;16.70;51.60
4725;DHT22;2376;53.544;10.226;2023-05-16T12:23:35;16.40;50.50
4725;DHT22;2376;53.544;10.226;2023-05-16T12:26:03;16.20;51.30
4725;DHT22;2376;53.544;10.226;2023-05-16T12:28:32;15.90;51.80
4725;DHT22;2376;53.544;10.226;2023-05-16T12:31:00;16.20;52.60
4725;DHT22;2376;53.544;10.226;2023-05-16T12:33:26;16.40;52.30
4725;DHT22;2376;53.544;10.226;2023-05-16T12:35:53;16.20;53.00
4725;DHT22;2376;53.544;10.226;2023-05-16T12:38:20;16.00;52.60
4725;DHT22;2376;53.544;10.226;2023-05-16T12:40:57;15.80;51.70
4725;DHT22;2376;53.544;10.226;2023-05-16T12:43:25;15.80;53.00
4725;DHT22;2376;53.544;10.226;2023-05-16T12:45:54;16.00;52.40
4725;DHT22;2376;53.544;10.226;2023-05-16T12:48:22;16.20;52.00
4725;DHT22;2376;53.544;10.226;2023-05-16T12:50:49;16.30;51.00
4725;DHT22;2376;53.544;10.226;2023-05-16T12:53:17;16.30;50.50
4725;DHT22;2376;53.544;10.226;2023-05-16T12:55:44;16.30;50.70
4725;DHT22;2376;53.544;10.226;2023-05-16T12:58:11;16.30;51.00
4725;DHT22;2376;53.544;10.226;2023-05-16T13:00:39;16.30;50.80
4725;DHT22;2376;53.544;10.226;2023-05-16T13:03:06;16.40;51.40
4725;DHT22;2376;53.544;10.226;2023-05-16T13:05:33;16.50;52.50
4725;DHT22;2376;53.544;10.226;2023-05-16T13:08:00;16.50;52.90
4725;DHT22;2376;53.544;10.226;2023-05-16T13:10:27;16.50;53.50
4725;DHT22;2376;53.544;10.226;2023-05-16T13:12:53;16.50;53.70
4725;DHT22;2376;53.544;10.226;2023-05-16T13:15:22;16.40;54.30
4725;DHT22;2376;53.544;10.226;2023-05-16T13:17:50;16.20;54.40
4725;DHT22;2376;53.544;10.226;2023-05-16T13:20:17;16.10;54.80
4725;DHT22;2376;53.544;10.226;2023-05-16T13:22:45;15.90;55.60
4725;DHT22;2376;53.544;10.226;2023-05-16T13:25:11;16.20;55.60
4725;DHT22;2376;53.544;10.226;2023-05-16T13:27:38;16.00;55.40
4725;DHT22;2376;53.544;10.226;2023-05-16T13:30:06;16.00;55.00
4725;DHT22;2376;53.544;10.226;2023-05-16T13:32:33;15.70;57.70
4725;DHT22;2376;53.544;10.226;2023-05-16T13:35:00;15.30;59.30
4725;DHT22;2376;53.544;10.226;2023-05-16T13:37:28;15.30;60.60
4725;DHT22;2376;53.544;10.226;2023-05-16T13:39:55;15.30;60.40
4725;DHT22;2376;53.544;10.226;2023-05-16T13:42:21;15.50;59.00
4725;DHT22;2376;53.544;10.226;2023-05-16T13:44:48;15.60;57.80
4725;DHT22;2376;53.544;10.226;2023-05-16T13:47:15;15.40;57.30
4725;DHT22;2376;53.544;10.226;2023-05-16T13:49:42;15.50;58.80
4725;DHT22;2376;53.544;10.226;2023-05-16T13:52:10;15.60;59.00
4725;DHT22;2376;53.544;10.226;2023-05-16T13:54:36;15.80;58.00
4725;DHT22;2376;53.544;10.226;2023-05-16T13:57:05;15.90;57.70
4725;DHT22;2376;53.544;10.226;2023-05-16T13:59:31;16.00;57.50
4725;DHT22;2376;53.544;10.226;2023-05-16T14:01:58;16.10;54.80
4725;DHT22;2376;53.544;10.226;2023-05-16T14:04:25;16.20;52.60
4725;DHT22;2376;53.544;10.226;2023-05-16T14:06:52;16.20;51.30
4725;DHT22;2376;53.544;10.226;2023-05-16T14:09:21;16.10;51.70
4725;DHT22;2376;53.544;10.226;2023-05-16T14:11:47;16.20;51.90
4725;DHT22;2376;53.544;10.226;2023-05-16T14:14:14;16.10;51.00
4725;DHT22;2376;53.544;10.226;2023-05-16T14:16:41;16.10;50.30
4725;DHT22;2376;53.544;10.226;2023-05-16T14:19:10;16.00;49.70
4725;DHT22;2376;53.544;10.226;2023-05-16T14:21:37;15.90;50.30
4725;DHT22;2376;53.544;10.226;2023-05-16T14:24:04;15.70;51.00
4725;DHT22;2376;53.544;10.226;2023-05-16T14:26:32;15.60;51.30
4725;DHT22;2376;53.544;10.226;2023-05-16T14:28:58;15.50;52.00
4725;DHT22;2376;53.544;10.226;2023-05-16T14:31:25;15.40;51.70
4725;DHT22;2376;53.544;10.226;2023-05-16T14:33:52;15.40;52.40
4725;DHT22;2376;53.544;10.226;2023-05-16T14:36:19;15.50;52.80
4725;DHT22;2376;53.544;10.226;2023-05-16T14:38:45;15.70;53.10
4725;DHT22;2376;53.544;10.226;2023-05-16T14:41:13;15.90;53.20
4725;DHT22;2376;53.544;10.226;2023-05-16T14:43:41;16.00;52.60
4725;DHT22;2376;53.544;10.226;2023-05-16T14:46:08;16.20;53.20
4725;DHT22;2376;53.544;10.226;2023-05-16T14:48:35;16.40;52.70
4725;DHT22;2376;53.544;10.226;2023-05-16T14:51:02;16.60;52.70
4725;DHT22;2376;53.544;10.226;2023-05-16T14:53:29;16.50;53.20
4725;DHT22;2376;53.544;10.226;2023-05-16T14:55:55;16.70;54.30
4725;DHT22;2376;53.544;10.226;2023-05-16T14:58:22;16.80;53.70
4725;DHT22;2376;53.544;10.226;2023-05-16T15:00:50;17.10;53.60
4725;DHT22;2376;53.544;10.226;2023-05-16T15:03:17;17.40;52.60
4725;DHT22;2376;53.544;10.226;2023-05-16T15:05:43;17.40;50.50
4725;DHT22;2376;53.544;10.226;2023-05-16T15:08:10;17.50;48.10
4725;DHT22;2376;53.544;10.226;2023-05-16T15:10:37;17.30;47.50
4725;DHT22;2376;53.544;10.226;2023-05-16T15:13:03;17.40;47.90
4725;DHT22;2376;53.544;10.226;2023-05-16T15:15:31;17.20;48.00
4725;DHT22;2376;53.544;10.226;2023-05-16T15:17:59;16.70;46.30
4725;DHT22;2376;53.544;10.226;2023-05-16T15:20:26;16.70;46.90
4725;DHT22;2376;53.544;10.226;2023-05-16T15:22:53;16.50;47.10
4725;DHT22;2376;53.544;10.226;2023-05-16T15:25:19;16.40;47.40
4725;DHT22;2376;53.544;10.226;2023-05-16T15:27:46;16.30;48.30
4725;DHT22;2376;53.544;10.226;2023-05-16T15:30:13;16.40;48.50
4725;DHT22;2376;53.544;10.226;2023-05-16T15:32:40;15.90;48.30
4725;DHT22;2376;53.544;10.226;2023-05-16T15:35:08;15.90;49.10
4725;DHT22;2376;53.544;10.226;2023-05-16T15:37:35;15.50;49.80
4725;DHT22;2376;53.544;10.226;2023-05-16T15:40:01;15.20;50.70
4725;DHT22;2376;53.544;10.226;2023-05-16T15:42:30;15.10;52.10
4725;DHT22;2376;53.544;10.226;2023-05-16T15:44:56;15.20;53.30
4725;DHT22;2376;53.544;10.226;2023-05-16T15:47:23;15.20;54.30
4725;DHT22;2376;53.544;10.226;2023-05-16T15:49:50;15.30;54.60
4725;DHT22;2376;53.544;10.226;2023-05-16T15:52:18;15.00;55.70
4725;DHT22;2376;53.544;10.226;2023-05-16T15:54:45;15.00;56.60